Hlavní strana
METAR-TAF:

METAR-TAF

Letiště :

Dakar, Senegal

zeměpisná šířka: 14-44N, zeměpisná délka: 017-30W, výška: 27 m

Aktuální stav počasí

Zpráva byla vytvořena před 1 hodinou a 21 minutami, v 12:00 UTC
Severní vítr 10 kt
Teplota 22°C
Vlhkost vzduchu 83%
Tlak 1014 hPa
Viditelnost 10 km a více
Žádná oblačnost pod 1500 m, nevyskytují se cumulonimby.

METAR: GOOY 231200Z 36010KT CAVOK 22/19 Q1014

Čas: 13:21 (13:21 UTC)

Předpověď počasí

Zpráva byla vytvořena před 1 hodinou a 51 minutami, v 11:30 UTC
Předpověď platná od 23 v 12 UTC do 24 v 18 UTC
Severní vítr 10 kt
Viditelnost 10 km a více
Žádná oblačnost pod 1500 m, nevyskytují se cumulonimby.

TAF: GOOY 231130Z 2312/2418 36010KT CAVOK

Stav a předpovědi počasí z více než 4 000 letišť (zprávy METAR a TAF).

Červené a žluté tečky na mapě představují dostupné meteorologické stanice.

Když kurzor umístíte na tečku, zobrazí se název stanice.

Pak kliknutím zobrazíte stav a předpověď počasí.

Chcete-li změnit mapu, kliknutím na zelené tlačítko se znaménkem +mapu přiblížíte, kliknutím na zelené tlačítko se znaménkem – mapu oddálíte a kliknutím na zelené šipky přejdete na sousední mapy.


METAR-TAF: